sensor_id;sensor_type;location;lat;lon;timestamp;temperature;humidity
25450;DHT22;13371;52.080;5.624;2024-02-04T00:00:32;13.10;99.90
25450;DHT22;13371;52.080;5.624;2024-02-04T00:02:58;13.20;99.90
25450;DHT22;13371;52.080;5.624;2024-02-04T00:05:24;13.40;99.90
25450;DHT22;13371;52.080;5.624;2024-02-04T00:07:49;13.50;99.90
25450;DHT22;13371;52.080;5.624;2024-02-04T00:10:15;13.50;99.90
25450;DHT22;13371;52.080;5.624;2024-02-04T00:12:42;13.30;99.90
25450;DHT22;13371;52.080;5.624;2024-02-04T00:15:08;13.30;99.90
25450;DHT22;13371;52.080;5.624;2024-02-04T00:17:34;13.20;99.90
25450;DHT22;13371;52.080;5.624;2024-02-04T00:20:01;13.30;99.90
25450;DHT22;13371;52.080;5.624;2024-02-04T00:22:27;13.20;99.90
25450;DHT22;13371;52.080;5.624;2024-02-04T00:24:53;13.20;99.90
25450;DHT22;13371;52.080;5.624;2024-02-04T00:27:18;13.30;99.90
25450;DHT22;13371;52.080;5.624;2024-02-04T00:29:44;13.30;99.90
25450;DHT22;13371;52.080;5.624;2024-02-04T00:32:09;13.30;99.90
25450;DHT22;13371;52.080;5.624;2024-02-04T00:34:35;13.30;99.90
25450;DHT22;13371;52.080;5.624;2024-02-04T00:37:00;13.20;99.90
25450;DHT22;13371;52.080;5.624;2024-02-04T00:39:26;13.00;99.90
25450;DHT22;13371;52.080;5.624;2024-02-04T00:41:52;13.40;99.90
25450;DHT22;13371;52.080;5.624;2024-02-04T00:44:17;13.40;99.90
25450;DHT22;13371;52.080;5.624;2024-02-04T00:46:43;13.40;99.90
25450;DHT22;13371;52.080;5.624;2024-02-04T00:49:09;13.30;99.90
25450;DHT22;13371;52.080;5.624;2024-02-04T00:51:34;13.20;99.90
25450;DHT22;13371;52.080;5.624;2024-02-04T00:54:00;13.40;99.90
25450;DHT22;13371;52.080;5.624;2024-02-04T00:56:25;13.50;99.90
25450;DHT22;13371;52.080;5.624;2024-02-04T00:58:51;13.40;99.90
25450;DHT22;13371;52.080;5.624;2024-02-04T01:01:17;13.50;99.90
25450;DHT22;13371;52.080;5.624;2024-02-04T01:03:42;13.40;99.90
25450;DHT22;13371;52.080;5.624;2024-02-04T01:06:08;13.20;99.90
25450;DHT22;13371;52.080;5.624;2024-02-04T01:08:33;13.20;99.90
25450;DHT22;13371;52.080;5.624;2024-02-04T01:11:00;13.30;99.90
25450;DHT22;13371;52.080;5.624;2024-02-04T01:13:27;13.20;99.90
25450;DHT22;13371;52.080;5.624;2024-02-04T01:15:53;13.00;99.90
25450;DHT22;13371;52.080;5.624;2024-02-04T01:18:18;12.90;99.90
25450;DHT22;13371;52.080;5.624;2024-02-04T01:20:44;12.80;99.90
25450;DHT22;13371;52.080;5.624;2024-02-04T01:23:10;12.80;99.90
25450;DHT22;13371;52.080;5.624;2024-02-04T01:25:35;12.70;99.90
25450;DHT22;13371;52.080;5.624;2024-02-04T01:28:01;12.80;99.90
25450;DHT22;13371;52.080;5.624;2024-02-04T01:30:26;12.80;99.90
25450;DHT22;13371;52.080;5.624;2024-02-04T01:32:53;12.90;99.90
25450;DHT22;13371;52.080;5.624;2024-02-04T01:35:19;12.70;99.90
25450;DHT22;13371;52.080;5.624;2024-02-04T01:37:45;12.70;99.90
25450;DHT22;13371;52.080;5.624;2024-02-04T01:40:14;12.80;99.90
25450;DHT22;13371;52.080;5.624;2024-02-04T01:42:39;12.70;99.90
25450;DHT22;13371;52.080;5.624;2024-02-04T01:45:05;12.70;99.90
25450;DHT22;13371;52.080;5.624;2024-02-04T01:47:31;12.80;99.90
25450;DHT22;13371;52.080;5.624;2024-02-04T01:49:56;12.90;99.90
25450;DHT22;13371;52.080;5.624;2024-02-04T01:52:22;12.90;99.90
25450;DHT22;13371;52.080;5.624;2024-02-04T01:54:48;12.70;99.90
25450;DHT22;13371;52.080;5.624;2024-02-04T01:57:14;12.90;99.90
25450;DHT22;13371;52.080;5.624;2024-02-04T01:59:40;12.90;99.90
25450;DHT22;13371;52.080;5.624;2024-02-04T02:02:06;12.90;99.90
25450;DHT22;13371;52.080;5.624;2024-02-04T02:04:32;12.90;99.90
25450;DHT22;13371;52.080;5.624;2024-02-04T02:06:57;12.80;99.90
25450;DHT22;13371;52.080;5.624;2024-02-04T02:09:25;12.60;99.90
25450;DHT22;13371;52.080;5.624;2024-02-04T02:12:13;12.60;99.90
25450;DHT22;13371;52.080;5.624;2024-02-04T02:14:44;12.60;99.90
25450;DHT22;13371;52.080;5.624;2024-02-04T02:17:12;12.50;99.90
25450;DHT22;13371;52.080;5.624;2024-02-04T02:19:52;12.50;99.90
25450;DHT22;13371;52.080;5.624;2024-02-04T02:22:29;12.50;99.90
25450;DHT22;13371;52.080;5.624;2024-02-04T02:24:59;12.30;99.90
25450;DHT22;13371;52.080;5.624;2024-02-04T02:27:25;12.30;99.90
25450;DHT22;13371;52.080;5.624;2024-02-04T02:29:51;12.30;99.90
25450;DHT22;13371;52.080;5.624;2024-02-04T02:32:17;12.40;99.90
25450;DHT22;13371;52.080;5.624;2024-02-04T02:34:43;12.50;99.90
25450;DHT22;13371;52.080;5.624;2024-02-04T02:37:29;12.50;99.90
25450;DHT22;13371;52.080;5.624;2024-02-04T02:42:37;12.90;99.90
25450;DHT22;13371;52.080;5.624;2024-02-04T02:45:04;12.80;99.90
25450;DHT22;13371;52.080;5.624;2024-02-04T02:47:30;12.70;99.90
25450;DHT22;13371;52.080;5.624;2024-02-04T02:49:57;12.70;99.90
25450;DHT22;13371;52.080;5.624;2024-02-04T02:52:22;12.30;99.90
25450;DHT22;13371;52.080;5.624;2024-02-04T02:54:48;12.10;99.90
25450;DHT22;13371;52.080;5.624;2024-02-04T02:57:14;12.10;99.90
25450;DHT22;13371;52.080;5.624;2024-02-04T02:59:39;12.20;99.90
25450;DHT22;13371;52.080;5.624;2024-02-04T03:02:05;12.30;99.90
25450;DHT22;13371;52.080;5.624;2024-02-04T03:04:30;12.30;99.90
25450;DHT22;13371;52.080;5.624;2024-02-04T03:06:56;12.60;99.90
25450;DHT22;13371;52.080;5.624;2024-02-04T03:09:21;12.60;99.90
25450;DHT22;13371;52.080;5.624;2024-02-04T03:11:47;12.50;99.90
25450;DHT22;13371;52.080;5.624;2024-02-04T03:14:15;12.50;99.90
25450;DHT22;13371;52.080;5.624;2024-02-04T03:16:44;12.60;99.90
25450;DHT22;13371;52.080;5.624;2024-02-04T03:19:09;12.70;99.90
25450;DHT22;13371;52.080;5.624;2024-02-04T03:21:35;12.80;99.90
25450;DHT22;13371;52.080;5.624;2024-02-04T03:24:01;12.80;99.90
25450;DHT22;13371;52.080;5.624;2024-02-04T03:26:26;12.80;99.90
25450;DHT22;13371;52.080;5.624;2024-02-04T03:28:52;12.90;99.90
25450;DHT22;13371;52.080;5.624;2024-02-04T03:31:21;12.80;99.90
25450;DHT22;13371;52.080;5.624;2024-02-04T03:33:47;12.70;99.90
25450;DHT22;13371;52.080;5.624;2024-02-04T03:36:18;12.50;99.90
25450;DHT22;13371;52.080;5.624;2024-02-04T03:38:43;12.10;99.90
25450;DHT22;13371;52.080;5.624;2024-02-04T03:41:09;12.10;99.90
25450;DHT22;13371;52.080;5.624;2024-02-04T03:43:36;12.00;99.90
25450;DHT22;13371;52.080;5.624;2024-02-04T03:46:02;11.80;99.90
25450;DHT22;13371;52.080;5.624;2024-02-04T03:48:27;11.90;99.90
25450;DHT22;13371;52.080;5.624;2024-02-04T03:50:53;12.10;99.90
25450;DHT22;13371;52.080;5.624;2024-02-04T03:53:18;12.10;99.90
25450;DHT22;13371;52.080;5.624;2024-02-04T03:55:44;12.10;99.90
25450;DHT22;13371;52.080;5.624;2024-02-04T03:58:10;12.20;99.90
25450;DHT22;13371;52.080;5.624;2024-02-04T04:00:35;12.10;99.90
25450;DHT22;13371;52.080;5.624;2024-02-04T04:03:01;12.20;99.90
25450;DHT22;13371;52.080;5.624;2024-02-04T04:05:26;12.10;99.90
25450;DHT22;13371;52.080;5.624;2024-02-04T04:07:52;12.10;99.90
25450;DHT22;13371;52.080;5.624;2024-02-04T04:10:17;12.20;99.90
25450;DHT22;13371;52.080;5.624;2024-02-04T04:12:43;11.90;99.90
25450;DHT22;13371;52.080;5.624;2024-02-04T04:15:09;11.90;99.90
25450;DHT22;13371;52.080;5.624;2024-02-04T04:17:34;12.10;99.90
25450;DHT22;13371;52.080;5.624;2024-02-04T04:20:00;12.10;99.90
25450;DHT22;13371;52.080;5.624;2024-02-04T04:22:25;12.30;99.90
25450;DHT22;13371;52.080;5.624;2024-02-04T04:24:51;12.30;99.90
25450;DHT22;13371;52.080;5.624;2024-02-04T04:27:16;12.30;99.90
25450;DHT22;13371;52.080;5.624;2024-02-04T04:29:42;12.10;99.90
25450;DHT22;13371;52.080;5.624;2024-02-04T04:32:07;12.10;99.90
25450;DHT22;13371;52.080;5.624;2024-02-04T04:34:33;12.20;99.90
25450;DHT22;13371;52.080;5.624;2024-02-04T04:36:58;12.30;99.90
25450;DHT22;13371;52.080;5.624;2024-02-04T04:39:24;12.40;99.90
25450;DHT22;13371;52.080;5.624;2024-02-04T04:41:49;12.50;99.90
25450;DHT22;13371;52.080;5.624;2024-02-04T04:44:15;12.50;99.90
25450;DHT22;13371;52.080;5.624;2024-02-04T04:46:40;12.50;99.90
25450;DHT22;13371;52.080;5.624;2024-02-04T04:49:06;12.50;99.90
25450;DHT22;13371;52.080;5.624;2024-02-04T04:51:31;12.40;99.90
25450;DHT22;13371;52.080;5.624;2024-02-04T04:53:57;12.30;99.90
25450;DHT22;13371;52.080;5.624;2024-02-04T04:56:23;12.40;99.90
25450;DHT22;13371;52.080;5.624;2024-02-04T04:58:48;12.30;99.90
25450;DHT22;13371;52.080;5.624;2024-02-04T05:01:15;12.20;99.90
25450;DHT22;13371;52.080;5.624;2024-02-04T05:03:40;12.10;99.90
25450;DHT22;13371;52.080;5.624;2024-02-04T05:06:06;12.10;99.90
25450;DHT22;13371;52.080;5.624;2024-02-04T05:08:32;11.80;99.90
25450;DHT22;13371;52.080;5.624;2024-02-04T05:10:57;11.90;99.90
25450;DHT22;13371;52.080;5.624;2024-02-04T05:13:23;12.00;99.90
25450;DHT22;13371;52.080;5.624;2024-02-04T05:15:48;12.10;99.90
25450;DHT22;13371;52.080;5.624;2024-02-04T05:18:14;11.70;99.90
25450;DHT22;13371;52.080;5.624;2024-02-04T05:20:39;11.90;99.90
25450;DHT22;13371;52.080;5.624;2024-02-04T05:23:05;11.80;99.90
25450;DHT22;13371;52.080;5.624;2024-02-04T05:25:30;11.80;99.90
25450;DHT22;13371;52.080;5.624;2024-02-04T05:27:56;11.80;99.90
25450;DHT22;13371;52.080;5.624;2024-02-04T05:30:22;11.90;99.90
25450;DHT22;13371;52.080;5.624;2024-02-04T05:32:48;11.70;99.90
25450;DHT22;13371;52.080;5.624;2024-02-04T05:35:13;11.60;99.90
25450;DHT22;13371;52.080;5.624;2024-02-04T05:37:39;11.80;99.90
25450;DHT22;13371;52.080;5.624;2024-02-04T05:40:05;11.80;99.90
25450;DHT22;13371;52.080;5.624;2024-02-04T05:42:30;12.00;99.90
25450;DHT22;13371;52.080;5.624;2024-02-04T05:44:57;12.00;99.90
25450;DHT22;13371;52.080;5.624;2024-02-04T05:47:23;12.10;99.90
25450;DHT22;13371;52.080;5.624;2024-02-04T05:49:48;12.20;99.90
25450;DHT22;13371;52.080;5.624;2024-02-04T05:52:14;12.40;99.90
25450;DHT22;13371;52.080;5.624;2024-02-04T05:54:40;12.30;99.90
25450;DHT22;13371;52.080;5.624;2024-02-04T05:57:06;12.40;99.90
25450;DHT22;13371;52.080;5.624;2024-02-04T05:59:33;12.40;99.90
25450;DHT22;13371;52.080;5.624;2024-02-04T06:02:01;12.20;99.90
25450;DHT22;13371;52.080;5.624;2024-02-04T06:04:26;12.10;99.90
25450;DHT22;13371;52.080;5.624;2024-02-04T06:06:52;12.10;99.90
25450;DHT22;13371;52.080;5.624;2024-02-04T06:09:17;12.20;99.90
25450;DHT22;13371;52.080;5.624;2024-02-04T06:11:46;12.30;99.90
25450;DHT22;13371;52.080;5.624;2024-02-04T06:14:13;12.30;99.90
25450;DHT22;13371;52.080;5.624;2024-02-04T06:16:38;12.20;99.90
25450;DHT22;13371;52.080;5.624;2024-02-04T06:19:04;12.20;99.90
25450;DHT22;13371;52.080;5.624;2024-02-04T06:21:30;12.00;99.90
25450;DHT22;13371;52.080;5.624;2024-02-04T06:23:56;11.80;99.90
25450;DHT22;13371;52.080;5.624;2024-02-04T06:26:21;11.80;99.90
25450;DHT22;13371;52.080;5.624;2024-02-04T06:28:47;11.80;99.90
25450;DHT22;13371;52.080;5.624;2024-02-04T06:31:14;11.80;99.90
25450;DHT22;13371;52.080;5.624;2024-02-04T06:33:40;11.60;99.90
25450;DHT22;13371;52.080;5.624;2024-02-04T06:36:09;11.80;99.90
25450;DHT22;13371;52.080;5.624;2024-02-04T06:38:35;11.90;99.90
25450;DHT22;13371;52.080;5.624;2024-02-04T06:41:01;12.10;99.90
25450;DHT22;13371;52.080;5.624;2024-02-04T06:43:27;12.10;99.90
25450;DHT22;13371;52.080;5.624;2024-02-04T06:45:52;11.80;99.90
25450;DHT22;13371;52.080;5.624;2024-02-04T06:48:21;11.90;99.90
25450;DHT22;13371;52.080;5.624;2024-02-04T06:50:46;11.70;99.90
25450;DHT22;13371;52.080;5.624;2024-02-04T06:53:13;11.70;99.90
25450;DHT22;13371;52.080;5.624;2024-02-04T06:55:39;11.90;99.90
25450;DHT22;13371;52.080;5.624;2024-02-04T06:58:04;12.00;99.90
25450;DHT22;13371;52.080;5.624;2024-02-04T07:00:30;11.60;99.90
25450;DHT22;13371;52.080;5.624;2024-02-04T07:02:55;11.70;99.90
25450;DHT22;13371;52.080;5.624;2024-02-04T07:05:22;11.80;99.90
25450;DHT22;13371;52.080;5.624;2024-02-04T07:07:48;11.90;99.90
25450;DHT22;13371;52.080;5.624;2024-02-04T07:10:15;11.80;99.90
25450;DHT22;13371;52.080;5.624;2024-02-04T07:12:40;11.90;99.90
25450;DHT22;13371;52.080;5.624;2024-02-04T07:15:06;12.00;99.90
25450;DHT22;13371;52.080;5.624;2024-02-04T07:17:32;12.10;99.90
25450;DHT22;13371;52.080;5.624;2024-02-04T07:19:57;12.00;99.90
25450;DHT22;13371;52.080;5.624;2024-02-04T07:22:23;11.90;99.90
25450;DHT22;13371;52.080;5.624;2024-02-04T07:24:49;12.10;99.90
25450;DHT22;13371;52.080;5.624;2024-02-04T07:27:14;12.30;99.90
25450;DHT22;13371;52.080;5.624;2024-02-04T07:29:40;12.50;99.90
25450;DHT22;13371;52.080;5.624;2024-02-04T07:32:05;12.40;99.90
25450;DHT22;13371;52.080;5.624;2024-02-04T07:34:31;12.40;99.90
25450;DHT22;13371;52.080;5.624;2024-02-04T07:36:57;12.40;99.90
25450;DHT22;13371;52.080;5.624;2024-02-04T07:39:22;12.30;99.90
25450;DHT22;13371;52.080;5.624;2024-02-04T07:41:48;12.20;99.90
25450;DHT22;13371;52.080;5.624;2024-02-04T07:44:13;11.60;99.90
25450;DHT22;13371;52.080;5.624;2024-02-04T07:46:39;11.70;99.90
25450;DHT22;13371;52.080;5.624;2024-02-04T07:49:06;11.80;99.90
25450;DHT22;13371;52.080;5.624;2024-02-04T07:51:31;11.70;99.90
25450;DHT22;13371;52.080;5.624;2024-02-04T07:53:57;11.90;99.90
25450;DHT22;13371;52.080;5.624;2024-02-04T07:56:23;11.70;99.90
25450;DHT22;13371;52.080;5.624;2024-02-04T07:58:48;11.60;99.90
25450;DHT22;13371;52.080;5.624;2024-02-04T08:01:14;11.70;99.90
25450;DHT22;13371;52.080;5.624;2024-02-04T08:03:39;11.70;99.90
25450;DHT22;13371;52.080;5.624;2024-02-04T08:06:05;11.80;99.90
25450;DHT22;13371;52.080;5.624;2024-02-04T08:08:31;11.90;99.90
25450;DHT22;13371;52.080;5.624;2024-02-04T08:10:57;12.00;99.90
25450;DHT22;13371;52.080;5.624;2024-02-04T08:13:23;12.10;99.90
25450;DHT22;13371;52.080;5.624;2024-02-04T08:15:48;11.80;99.90
25450;DHT22;13371;52.080;5.624;2024-02-04T08:18:14;11.60;99.90
25450;DHT22;13371;52.080;5.624;2024-02-04T08:20:39;11.80;99.90
25450;DHT22;13371;52.080;5.624;2024-02-04T08:23:05;11.80;99.90
25450;DHT22;13371;52.080;5.624;2024-02-04T08:25:30;11.90;99.90
25450;DHT22;13371;52.080;5.624;2024-02-04T08:27:57;11.80;99.90
25450;DHT22;13371;52.080;5.624;2024-02-04T08:30:23;11.80;99.90
25450;DHT22;13371;52.080;5.624;2024-02-04T08:32:49;12.10;99.90
25450;DHT22;13371;52.080;5.624;2024-02-04T08:35:14;12.10;99.90
25450;DHT22;13371;52.080;5.624;2024-02-04T08:37:40;12.10;99.90
25450;DHT22;13371;52.080;5.624;2024-02-04T08:40:06;12.00;99.90
25450;DHT22;13371;52.080;5.624;2024-02-04T08:42:32;11.80;99.90
25450;DHT22;13371;52.080;5.624;2024-02-04T08:44:57;11.90;99.90
25450;DHT22;13371;52.080;5.624;2024-02-04T08:47:23;12.10;99.90
25450;DHT22;13371;52.080;5.624;2024-02-04T08:49:49;12.20;99.90
25450;DHT22;13371;52.080;5.624;2024-02-04T08:52:14;12.30;99.90
25450;DHT22;13371;52.080;5.624;2024-02-04T08:54:40;12.20;99.90
25450;DHT22;13371;52.080;5.624;2024-02-04T08:57:05;12.00;99.90
25450;DHT22;13371;52.080;5.624;2024-02-04T08:59:31;12.00;99.90
25450;DHT22;13371;52.080;5.624;2024-02-04T09:01:57;12.10;99.90
25450;DHT22;13371;52.080;5.624;2024-02-04T09:04:22;12.10;99.90
25450;DHT22;13371;52.080;5.624;2024-02-04T09:06:48;12.10;99.90
25450;DHT22;13371;52.080;5.624;2024-02-04T09:09:13;12.00;99.90
25450;DHT22;13371;52.080;5.624;2024-02-04T09:11:39;12.00;99.90
25450;DHT22;13371;52.080;5.624;2024-02-04T09:14:05;12.10;99.90
25450;DHT22;13371;52.080;5.624;2024-02-04T09:16:30;12.20;99.90
25450;DHT22;13371;52.080;5.624;2024-02-04T09:18:56;12.30;99.90
25450;DHT22;13371;52.080;5.624;2024-02-04T09:21:21;12.20;99.90
25450;DHT22;13371;52.080;5.624;2024-02-04T09:23:47;12.10;99.90
25450;DHT22;13371;52.080;5.624;2024-02-04T09:26:13;12.10;99.90
25450;DHT22;13371;52.080;5.624;2024-02-04T09:28:39;12.20;99.90
25450;DHT22;13371;52.080;5.624;2024-02-04T09:31:07;12.30;99.90
25450;DHT22;13371;52.080;5.624;2024-02-04T09:33:33;12.30;99.90
25450;DHT22;13371;52.080;5.624;2024-02-04T09:35:58;12.30;99.90
25450;DHT22;13371;52.080;5.624;2024-02-04T09:38:24;12.40;99.90
25450;DHT22;13371;52.080;5.624;2024-02-04T09:40:49;12.40;99.90
25450;DHT22;13371;52.080;5.624;2024-02-04T09:43:15;12.20;99.90
25450;DHT22;13371;52.080;5.624;2024-02-04T09:45:41;12.00;99.90
25450;DHT22;13371;52.080;5.624;2024-02-04T09:48:08;12.00;99.90
25450;DHT22;13371;52.080;5.624;2024-02-04T09:50:34;12.10;99.90
25450;DHT22;13371;52.080;5.624;2024-02-04T09:53:00;12.10;99.90
25450;DHT22;13371;52.080;5.624;2024-02-04T09:55:29;12.20;99.90
25450;DHT22;13371;52.080;5.624;2024-02-04T09:57:56;12.10;99.90
25450;DHT22;13371;52.080;5.624;2024-02-04T10:00:21;12.00;99.90
25450;DHT22;13371;52.080;5.624;2024-02-04T10:02:50;12.00;99.90
25450;DHT22;13371;52.080;5.624;2024-02-04T10:05:15;11.80;99.90
25450;DHT22;13371;52.080;5.624;2024-02-04T10:07:41;12.00;99.90
25450;DHT22;13371;52.080;5.624;2024-02-04T10:10:08;12.20;99.90
25450;DHT22;13371;52.080;5.624;2024-02-04T10:12:33;12.20;99.90
25450;DHT22;13371;52.080;5.624;2024-02-04T10:15:01;12.20;99.90
25450;DHT22;13371;52.080;5.624;2024-02-04T10:17:30;12.10;99.90
25450;DHT22;13371;52.080;5.624;2024-02-04T10:19:56;12.20;99.90
25450;DHT22;13371;52.080;5.624;2024-02-04T10:22:22;12.20;99.90
25450;DHT22;13371;52.080;5.624;2024-02-04T10:24:48;12.30;99.90
25450;DHT22;13371;52.080;5.624;2024-02-04T10:27:15;12.30;99.90
25450;DHT22;13371;52.080;5.624;2024-02-04T10:29:41;12.40;99.90
25450;DHT22;13371;52.080;5.624;2024-02-04T10:32:07;12.30;99.90
25450;DHT22;13371;52.080;5.624;2024-02-04T10:34:38;12.30;99.90
25450;DHT22;13371;52.080;5.624;2024-02-04T10:37:04;12.30;99.90
25450;DHT22;13371;52.080;5.624;2024-02-04T10:39:30;12.40;99.90
25450;DHT22;13371;52.080;5.624;2024-02-04T10:41:56;12.60;99.90
25450;DHT22;13371;52.080;5.624;2024-02-04T10:44:24;12.70;99.90
25450;DHT22;13371;52.080;5.624;2024-02-04T10:46:52;12.50;99.90
25450;DHT22;13371;52.080;5.624;2024-02-04T10:49:19;12.50;99.90
25450;DHT22;13371;52.080;5.624;2024-02-04T10:51:45;12.80;99.90
25450;DHT22;13371;52.080;5.624;2024-02-04T10:54:15;12.90;99.90
25450;DHT22;13371;52.080;5.624;2024-02-04T10:56:45;12.90;99.90
25450;DHT22;13371;52.080;5.624;2024-02-04T10:59:11;12.70;99.90
25450;DHT22;13371;52.080;5.624;2024-02-04T11:01:40;12.70;99.90
25450;DHT22;13371;52.080;5.624;2024-02-04T11:04:09;12.80;99.90
25450;DHT22;13371;52.080;5.624;2024-02-04T11:06:36;12.90;99.90
25450;DHT22;13371;52.080;5.624;2024-02-04T11:09:03;12.90;99.90
25450;DHT22;13371;52.080;5.624;2024-02-04T11:11:31;12.80;99.90
25450;DHT22;13371;52.080;5.624;2024-02-04T11:14:03;12.70;99.90
25450;DHT22;13371;52.080;5.624;2024-02-04T11:19:31;12.80;99.90
25450;DHT22;13371;52.080;5.624;2024-02-04T11:25:17;13.00;99.90
25450;DHT22;13371;52.080;5.624;2024-02-04T11:27:47;13.10;99.90
25450;DHT22;13371;52.080;5.624;2024-02-04T11:30:13;13.00;99.90
25450;DHT22;13371;52.080;5.624;2024-02-04T11:32:40;12.80;99.90
25450;DHT22;13371;52.080;5.624;2024-02-04T11:35:07;12.70;99.90
25450;DHT22;13371;52.080;5.624;2024-02-04T11:37:33;12.60;99.90
25450;DHT22;13371;52.080;5.624;2024-02-04T11:39:59;12.50;99.90
25450;DHT22;13371;52.080;5.624;2024-02-04T11:42:25;12.50;99.90
25450;DHT22;13371;52.080;5.624;2024-02-04T11:44:50;12.70;99.90
25450;DHT22;13371;52.080;5.624;2024-02-04T11:47:23;12.90;99.90
25450;DHT22;13371;52.080;5.624;2024-02-04T11:49:57;13.00;99.90
25450;DHT22;13371;52.080;5.624;2024-02-04T11:52:22;13.10;99.90
25450;DHT22;13371;52.080;5.624;2024-02-04T11:54:48;12.90;99.90
25450;DHT22;13371;52.080;5.624;2024-02-04T11:57:15;12.70;99.90
25450;DHT22;13371;52.080;5.624;2024-02-04T11:59:42;12.80;99.90
25450;DHT22;13371;52.080;5.624;2024-02-04T12:02:07;12.80;99.90
25450;DHT22;13371;52.080;5.624;2024-02-04T12:04:34;12.70;99.90
25450;DHT22;13371;52.080;5.624;2024-02-04T12:07:00;12.40;99.90
25450;DHT22;13371;52.080;5.624;2024-02-04T12:09:26;12.50;99.90
25450;DHT22;13371;52.080;5.624;2024-02-04T12:11:53;12.60;99.90
25450;DHT22;13371;52.080;5.624;2024-02-04T12:14:19;12.60;99.90
25450;DHT22;13371;52.080;5.624;2024-02-04T12:16:45;12.60;99.90
25450;DHT22;13371;52.080;5.624;2024-02-04T12:19:11;12.60;99.90
25450;DHT22;13371;52.080;5.624;2024-02-04T12:21:37;12.80;99.90
25450;DHT22;13371;52.080;5.624;2024-02-04T12:24:03;12.70;99.90
25450;DHT22;13371;52.080;5.624;2024-02-04T12:26:29;12.70;99.90
25450;DHT22;13371;52.080;5.624;2024-02-04T12:28:55;12.70;99.90
25450;DHT22;13371;52.080;5.624;2024-02-04T12:31:26;12.70;99.90
25450;DHT22;13371;52.080;5.624;2024-02-04T12:33:55;12.90;99.90
25450;DHT22;13371;52.080;5.624;2024-02-04T12:36:27;12.60;99.90
25450;DHT22;13371;52.080;5.624;2024-02-04T12:38:53;12.70;99.90
25450;DHT22;13371;52.080;5.624;2024-02-04T12:41:20;12.70;99.90
25450;DHT22;13371;52.080;5.624;2024-02-04T12:43:54;12.70;99.90
25450;DHT22;13371;52.080;5.624;2024-02-04T12:46:20;12.90;99.90
25450;DHT22;13371;52.080;5.624;2024-02-04T12:48:54;12.90;99.90
25450;DHT22;13371;52.080;5.624;2024-02-04T12:51:33;13.00;99.90
25450;DHT22;13371;52.080;5.624;2024-02-04T12:54:06;13.00;99.90
25450;DHT22;13371;52.080;5.624;2024-02-04T12:56:50;12.80;99.90
25450;DHT22;13371;52.080;5.624;2024-02-04T12:59:32;12.80;99.90
25450;DHT22;13371;52.080;5.624;2024-02-04T13:02:00;12.90;99.90
25450;DHT22;13371;52.080;5.624;2024-02-04T13:04:26;12.90;99.90
25450;DHT22;13371;52.080;5.624;2024-02-04T13:06:52;13.00;99.90
25450;DHT22;13371;52.080;5.624;2024-02-04T13:09:18;12.80;99.90
25450;DHT22;13371;52.080;5.624;2024-02-04T13:11:44;12.70;99.90
25450;DHT22;13371;52.080;5.624;2024-02-04T13:14:10;12.50;99.90
25450;DHT22;13371;52.080;5.624;2024-02-04T13:16:37;12.60;99.90
25450;DHT22;13371;52.080;5.624;2024-02-04T13:19:03;12.70;99.90
25450;DHT22;13371;52.080;5.624;2024-02-04T13:21:29;12.50;99.90
25450;DHT22;13371;52.080;5.624;2024-02-04T13:23:55;12.40;99.90
25450;DHT22;13371;52.080;5.624;2024-02-04T13:26:20;12.30;99.90
25450;DHT22;13371;52.080;5.624;2024-02-04T13:28:46;12.40;99.90
25450;DHT22;13371;52.080;5.624;2024-02-04T13:31:12;12.50;99.90
25450;DHT22;13371;52.080;5.624;2024-02-04T13:33:38;12.40;99.90
25450;DHT22;13371;52.080;5.624;2024-02-04T13:36:06;12.40;99.90
25450;DHT22;13371;52.080;5.624;2024-02-04T13:38:32;12.30;99.90
25450;DHT22;13371;52.080;5.624;2024-02-04T13:40:57;12.30;99.90
25450;DHT22;13371;52.080;5.624;2024-02-04T13:43:23;12.40;99.90
25450;DHT22;13371;52.080;5.624;2024-02-04T13:45:48;12.20;99.90
25450;DHT22;13371;52.080;5.624;2024-02-04T13:48:14;12.30;99.90
25450;DHT22;13371;52.080;5.624;2024-02-04T13:50:40;12.50;99.90
25450;DHT22;13371;52.080;5.624;2024-02-04T13:53:05;12.50;99.90
25450;DHT22;13371;52.080;5.624;2024-02-04T13:55:31;12.60;99.90
25450;DHT22;13371;52.080;5.624;2024-02-04T13:57:56;12.50;99.90
25450;DHT22;13371;52.080;5.624;2024-02-04T14:00:22;12.60;99.90
25450;DHT22;13371;52.080;5.624;2024-02-04T14:02:47;12.60;99.90
25450;DHT22;13371;52.080;5.624;2024-02-04T14:05:13;12.70;99.90
25450;DHT22;13371;52.080;5.624;2024-02-04T14:07:38;12.60;99.90
25450;DHT22;13371;52.080;5.624;2024-02-04T14:10:04;12.40;99.90
25450;DHT22;13371;52.080;5.624;2024-02-04T14:12:30;12.30;99.90
25450;DHT22;13371;52.080;5.624;2024-02-04T14:14:57;12.40;99.90
25450;DHT22;13371;52.080;5.624;2024-02-04T14:17:22;12.40;99.90
25450;DHT22;13371;52.080;5.624;2024-02-04T14:19:48;12.40;99.90
25450;DHT22;13371;52.080;5.624;2024-02-04T14:22:16;12.40;99.90
25450;DHT22;13371;52.080;5.624;2024-02-04T14:24:43;12.40;99.90
25450;DHT22;13371;52.080;5.624;2024-02-04T14:27:11;12.50;99.90
25450;DHT22;13371;52.080;5.624;2024-02-04T14:29:36;12.60;99.90
25450;DHT22;13371;52.080;5.624;2024-02-04T14:32:02;12.60;99.90
25450;DHT22;13371;52.080;5.624;2024-02-04T14:34:28;12.70;99.90
25450;DHT22;13371;52.080;5.624;2024-02-04T14:36:54;12.80;99.90
25450;DHT22;13371;52.080;5.624;2024-02-04T14:39:19;12.70;99.90
25450;DHT22;13371;52.080;5.624;2024-02-04T14:41:45;12.80;99.90
25450;DHT22;13371;52.080;5.624;2024-02-04T14:44:10;12.90;99.90
25450;DHT22;13371;52.080;5.624;2024-02-04T14:46:37;12.70;99.90
25450;DHT22;13371;52.080;5.624;2024-02-04T14:49:03;12.70;99.90
25450;DHT22;13371;52.080;5.624;2024-02-04T14:51:29;12.60;99.90
25450;DHT22;13371;52.080;5.624;2024-02-04T14:53:57;12.60;99.90
25450;DHT22;13371;52.080;5.624;2024-02-04T14:56:23;12.80;99.90
25450;DHT22;13371;52.080;5.624;2024-02-04T14:58:49;12.70;99.90
25450;DHT22;13371;52.080;5.624;2024-02-04T15:01:14;12.60;99.90
25450;DHT22;13371;52.080;5.624;2024-02-04T15:03:40;12.70;99.90
25450;DHT22;13371;52.080;5.624;2024-02-04T15:06:06;12.70;99.90
25450;DHT22;13371;52.080;5.624;2024-02-04T15:08:31;12.80;99.90
25450;DHT22;13371;52.080;5.624;2024-02-04T15:10:57;12.60;99.90
25450;DHT22;13371;52.080;5.624;2024-02-04T15:13:23;12.80;99.90
25450;DHT22;13371;52.080;5.624;2024-02-04T15:15:49;12.80;99.90
25450;DHT22;13371;52.080;5.624;2024-02-04T15:18:14;12.90;99.90
25450;DHT22;13371;52.080;5.624;2024-02-04T15:20:40;13.00;99.90
25450;DHT22;13371;52.080;5.624;2024-02-04T15:23:06;12.80;99.90
25450;DHT22;13371;52.080;5.624;2024-02-04T15:25:35;12.80;99.90
25450;DHT22;13371;52.080;5.624;2024-02-04T15:28:11;12.80;99.90
25450;DHT22;13371;52.080;5.624;2024-02-04T15:30:38;12.80;99.90
25450;DHT22;13371;52.080;5.624;2024-02-04T15:33:04;12.60;99.90